createdAt,value
2022-10-24T00:01:47.686Z,93578.22
2022-10-24T00:04:16.172Z,93567.72
2022-10-24T00:06:44.087Z,93575.78
2022-10-24T00:09:12.565Z,93570.78
2022-10-24T00:11:43.944Z,93571.78
2022-10-24T00:14:12.964Z,93570.19
2022-10-24T00:16:41.441Z,93571.81
2022-10-24T00:19:10.122Z,93567.38
2022-10-24T00:21:38.569Z,93564.53
2022-10-24T00:24:08.543Z,93562.72
2022-10-24T00:26:37.569Z,93558.25
2022-10-24T00:29:06.537Z,93554.81
2022-10-24T00:31:35.370Z,93551.22
2022-10-24T00:34:04.267Z,93548.22
2022-10-24T00:36:33.480Z,93550.22
2022-10-24T00:39:02.090Z,93543.94
2022-10-24T00:41:39.676Z,93540.50
2022-10-24T00:44:29.069Z,93531.00
2022-10-24T00:47:04.776Z,93532.63
2022-10-24T00:49:51.467Z,93527.97
2022-10-24T00:52:25.471Z,93530.22
2022-10-24T00:54:56.809Z,93526.97
2022-10-24T00:57:48.198Z,93528.59
2022-10-24T01:00:27.606Z,93526.59
2022-10-24T01:02:56.710Z,93523.59
2022-10-24T01:05:30.125Z,93522.19
2022-10-24T01:08:19.216Z,93527.09
2022-10-24T01:10:47.376Z,93521.06
2022-10-24T01:13:48.012Z,93519.84
2022-10-24T01:16:25.354Z,93522.84
2022-10-24T01:19:02.817Z,93514.38
2022-10-24T01:21:34.426Z,93517.41
2022-10-24T01:24:44.291Z,93517.00
2022-10-24T01:27:42.686Z,93501.66
2022-10-24T01:30:17.824Z,93502.28
2022-10-24T01:32:49.283Z,93495.78
2022-10-24T01:36:06.028Z,93500.44
2022-10-24T01:38:53.428Z,93495.59
2022-10-24T01:41:25.679Z,93488.72
2022-10-24T01:43:59.086Z,93500.03
2022-10-24T01:46:29.644Z,93495.41
2022-10-24T01:49:08.357Z,93497.63
2022-10-24T01:51:38.496Z,93496.41
2022-10-24T01:54:06.501Z,93491.59
2022-10-24T01:56:35.060Z,93496.03
2022-10-24T01:59:32.270Z,93495.63
2022-10-24T02:02:35.792Z,93491.59
2022-10-24T02:05:14.366Z,93495.25
2022-10-24T02:07:45.517Z,93489.81
2022-10-24T02:10:40.326Z,93486.56
2022-10-24T02:13:20.698Z,93481.13
2022-10-24T02:15:54.192Z,93479.31
2022-10-24T02:18:23.437Z,93469.03
2022-10-24T02:21:01.724Z,93467.00
2022-10-24T02:23:39.847Z,93465.19
2022-10-24T02:26:12.844Z,93444.38
2022-10-24T02:28:46.953Z,93448.81
2022-10-24T02:31:25.059Z,93436.72
2022-10-24T02:33:55.758Z,93442.19
2022-10-24T02:36:27.602Z,93442.19
2022-10-24T02:38:58.221Z,93430.88
2022-10-24T02:41:31.562Z,93440.38
2022-10-24T02:44:02.852Z,93430.50
2022-10-24T02:46:33.328Z,93431.72
2022-10-24T02:49:04.304Z,93416.97
2022-10-24T02:51:36.410Z,93418.41
2022-10-24T02:54:05.745Z,93420.03
2022-10-24T02:56:34.923Z,93422.47
2022-10-24T02:59:03.150Z,93429.72
2022-10-24T03:01:31.753Z,93424.09
2022-10-24T03:04:00.338Z,93419.03
2022-10-24T03:06:28.812Z,93420.88
2022-10-24T03:08:57.340Z,93415.44
2022-10-24T03:11:25.844Z,93408.38
2022-10-24T03:13:54.369Z,93394.88
2022-10-24T03:16:22.959Z,93391.66
2022-10-24T03:18:51.149Z,93391.47
2022-10-24T03:21:19.656Z,93389.66
2022-10-24T03:23:48.306Z,93391.69
2022-10-24T03:26:16.910Z,93377.59
2022-10-24T03:28:45.070Z,93382.84
2022-10-24T03:31:12.994Z,93380.19
2022-10-24T03:33:41.508Z,93377.38
2022-10-24T03:36:10.318Z,93373.16
2022-10-24T03:38:38.833Z,93359.25
2022-10-24T03:41:07.525Z,93361.88
2022-10-24T03:43:35.737Z,93356.22
2022-10-24T03:46:04.326Z,93339.69
2022-10-24T03:48:32.993Z,93336.88
2022-10-24T03:51:01.603Z,93340.91
2022-10-24T03:53:30.220Z,93337.47
2022-10-24T03:55:58.693Z,93325.38
2022-10-24T03:58:27.238Z,93322.75
2022-10-24T04:00:59.536Z,93321.16
2022-10-24T04:03:28.909Z,93313.47
2022-10-24T04:05:57.255Z,93309.03
2022-10-24T04:08:25.803Z,93308.03
2022-10-24T04:10:54.571Z,93302.00
2022-10-24T04:13:23.122Z,93304.41
2022-10-24T04:15:51.659Z,93295.72
2022-10-24T04:18:20.239Z,93288.88
2022-10-24T04:20:48.726Z,93287.88
2022-10-24T04:23:17.293Z,93292.09
2022-10-24T04:25:46.317Z,93289.06
2022-10-24T04:28:14.878Z,93281.81
2022-10-24T04:33:16.700Z,93274.97
2022-10-24T04:35:49.997Z,93274.13
2022-10-24T04:38:19.104Z,93270.91
2022-10-24T04:40:53.670Z,93273.13
2022-10-24T04:43:23.061Z,93270.69
2022-10-24T04:45:51.668Z,93280.13
2022-10-24T04:48:20.188Z,93275.28
2022-10-24T04:50:49.516Z,93270.25
2022-10-24T04:53:18.017Z,93265.41
2022-10-24T04:55:46.559Z,93268.59
2022-10-24T04:58:15.181Z,93263.78
2022-10-24T05:00:47.597Z,93265.34
2022-10-24T05:03:16.083Z,93268.94
2022-10-24T05:05:44.940Z,93262.09
2022-10-24T05:08:13.409Z,93256.06
2022-10-24T05:10:41.989Z,93256.63
2022-10-24T05:13:11.393Z,93252.03
2022-10-24T05:15:40.368Z,93248.78
2022-10-24T05:18:08.461Z,93248.16
2022-10-24T05:20:36.975Z,93246.97
2022-10-24T05:23:05.982Z,93253.38
2022-10-24T05:25:35.404Z,93243.91
2022-10-24T05:28:03.883Z,93242.09
2022-10-24T05:30:32.583Z,93239.06
2022-10-24T05:33:01.102Z,93231.19
2022-10-24T05:35:29.888Z,93229.97
2022-10-24T05:37:58.432Z,93228.13
2022-10-24T05:40:26.848Z,93221.69
2022-10-24T05:42:55.582Z,93212.03
2022-10-24T05:45:24.190Z,93203.97
2022-10-24T05:47:52.661Z,93203.19
2022-10-24T05:50:21.216Z,93205.97
2022-10-24T05:52:49.771Z,93206.78
2022-10-24T05:55:18.555Z,93201.13
2022-10-24T05:57:47.827Z,93199.34
2022-10-24T06:00:18.350Z,93193.50
2022-10-24T06:05:21.234Z,93188.97
2022-10-24T06:07:49.760Z,93182.56
2022-10-24T06:10:18.475Z,93175.13
2022-10-24T06:12:47.350Z,93171.72
2022-10-24T06:15:16.157Z,93165.69
2022-10-24T06:17:44.850Z,93156.06
2022-10-24T06:20:13.438Z,93156.06
2022-10-24T06:22:42.460Z,93154.88
2022-10-24T06:25:11.785Z,93153.25
2022-10-24T06:27:40.841Z,93147.22
2022-10-24T06:30:11.425Z,93137.00
2022-10-24T06:32:43.678Z,93122.34
2022-10-24T06:35:15.996Z,93117.75
2022-10-24T06:37:47.336Z,93114.72
2022-10-24T06:40:17.883Z,93120.34
2022-10-24T06:42:46.807Z,93117.53
2022-10-24T06:45:15.367Z,93112.72
2022-10-24T06:47:44.266Z,93111.72
2022-10-24T06:50:13.101Z,93110.91
2022-10-24T06:52:41.619Z,93099.09
2022-10-24T06:55:10.505Z,93094.84
2022-10-24T06:57:38.462Z,93082.59
2022-10-24T07:00:08.239Z,93081.78
2022-10-24T07:02:37.141Z,93072.16
2022-10-24T07:05:05.933Z,93065.50
2022-10-24T07:07:35.195Z,93060.91
2022-10-24T07:10:03.724Z,93064.72
2022-10-24T07:12:32.342Z,93060.50
2022-10-24T07:15:00.836Z,93049.63
2022-10-24T07:17:30.690Z,93051.06
2022-10-24T07:19:59.270Z,93049.25
2022-10-24T07:22:30.258Z,93046.22
2022-10-24T07:25:01.454Z,93040.00
2022-10-24T07:27:29.993Z,93036.38
2022-10-24T07:30:00.480Z,93024.13
2022-10-24T07:32:31.616Z,93030.53
2022-10-24T07:35:00.137Z,93021.09
2022-10-24T07:37:28.669Z,93018.69
2022-10-24T07:39:57.257Z,93011.09
2022-10-24T07:42:25.803Z,93013.50
2022-10-24T07:44:54.279Z,93019.72
2022-10-24T07:47:22.853Z,93010.28
2022-10-24T07:49:51.373Z,93007.47
2022-10-24T07:52:19.845Z,93002.25
2022-10-24T07:54:48.407Z,93012.69
2022-10-24T07:57:17.066Z,93016.09
2022-10-24T07:59:45.521Z,93005.06
2022-10-24T08:02:15.406Z,92993.03
2022-10-24T08:04:44.228Z,92985.38
2022-10-24T08:07:16.641Z,92980.97
2022-10-24T08:09:49.263Z,92984.16
2022-10-24T08:12:17.809Z,92971.72
2022-10-24T08:14:47.699Z,92971.31
2022-10-24T08:17:19.385Z,92973.72
2022-10-24T08:19:47.948Z,92962.50
2022-10-24T08:22:18.146Z,92966.50
2022-10-24T08:24:47.034Z,92958.88
2022-10-24T08:27:15.519Z,92961.50
2022-10-24T08:29:44.082Z,92963.31
2022-10-24T08:32:12.593Z,92955.06
2022-10-24T08:34:41.062Z,92956.09
2022-10-24T08:37:09.676Z,92960.13
2022-10-24T08:39:39.709Z,92952.69
2022-10-24T08:42:13.505Z,92942.44
2022-10-24T08:44:48.677Z,92938.63
2022-10-24T08:50:06.837Z,92920.16
2022-10-24T08:52:42.184Z,92917.38
2022-10-24T08:55:30.819Z,92920.38
2022-10-24T08:58:16.832Z,92903.50
2022-10-24T09:00:48.103Z,92899.31
2022-10-24T09:03:57.962Z,92902.91
2022-10-24T09:06:28.964Z,92890.88
2022-10-24T09:09:20.057Z,92887.28
2022-10-24T09:12:03.662Z,92884.69
2022-10-24T09:14:38.607Z,92879.88
2022-10-24T09:20:05.219Z,92852.75
2022-10-24T09:22:39.498Z,92848.75
2022-10-24T09:25:16.348Z,92840.50
2022-10-24T09:27:45.708Z,92824.25
2022-10-24T09:30:20.821Z,92817.81
2022-10-24T09:32:49.936Z,92816.00
2022-10-24T09:35:27.504Z,92804.38
2022-10-24T09:37:58.550Z,92804.16
2022-10-24T09:40:34.143Z,92803.16
2022-10-24T09:43:19.881Z,92791.72
2022-10-24T09:45:52.057Z,92790.72
2022-10-24T09:48:26.143Z,92789.72
2022-10-24T09:50:58.669Z,92775.66
2022-10-24T09:53:29.651Z,92767.22
2022-10-24T09:56:16.450Z,92763.41
2022-10-24T09:58:45.090Z,92759.38
2022-10-24T10:01:16.394Z,92761.41
2022-10-24T10:04:03.754Z,92762.00
2022-10-24T10:06:35.329Z,92759.00
2022-10-24T10:09:03.939Z,92761.41
2022-10-24T10:11:37.709Z,92762.00
2022-10-24T10:14:24.267Z,92765.78
2022-10-24T10:17:06.358Z,92769.84
2022-10-24T10:19:39.551Z,92757.38
2022-10-24T10:22:25.356Z,92757.97
2022-10-24T10:24:54.513Z,92751.16
2022-10-24T10:27:36.326Z,92747.94
2022-10-24T10:30:15.003Z,92742.94
2022-10-24T10:33:13.825Z,92748.34
2022-10-24T10:35:51.006Z,92742.53
2022-10-24T10:38:34.653Z,92742.16
2022-10-24T10:41:16.841Z,92745.38
2022-10-24T10:44:22.079Z,92737.75
2022-10-24T10:47:13.718Z,92735.94
2022-10-24T10:49:43.276Z,92735.34
2022-10-24T10:52:19.789Z,92724.50
2022-10-24T10:55:06.814Z,92704.84
2022-10-24T10:58:01.632Z,92701.03
2022-10-24T11:01:08.653Z,92687.81
2022-10-24T11:03:59.921Z,92688.19
2022-10-24T11:06:46.005Z,92685.59
2022-10-24T11:09:25.613Z,92678.38
2022-10-24T11:11:59.978Z,92669.97
2022-10-24T11:14:56.842Z,92675.97
2022-10-24T11:17:33.763Z,92669.56
2022-10-24T11:20:28.172Z,92665.94
2022-10-24T11:23:23.591Z,92676.38
2022-10-24T11:26:16.554Z,92689.81
2022-10-24T11:28:56.396Z,92690.81
2022-10-24T11:31:31.094Z,92690.19
2022-10-24T11:34:02.346Z,92689.19
2022-10-24T11:37:04.232Z,92696.59
2022-10-24T11:39:45.058Z,92696.59
2022-10-24T11:42:50.155Z,92683.97
2022-10-24T11:45:21.470Z,92691.56
2022-10-24T11:48:19.214Z,92687.34
2022-10-24T11:50:54.016Z,92690.34
2022-10-24T11:53:49.036Z,92689.72
2022-10-24T11:56:32.366Z,92690.13
2022-10-24T11:59:06.459Z,92696.91
2022-10-24T12:02:03.177Z,92702.09
2022-10-24T12:05:00.578Z,92692.47
2022-10-24T12:07:54.577Z,92706.06
2022-10-24T12:10:41.710Z,92702.66
2022-10-24T12:13:36.647Z,92692.63
2022-10-24T12:16:15.168Z,92682.59
2022-10-24T12:18:49.065Z,92681.78
2022-10-24T12:21:25.766Z,92683.38
2022-10-24T12:23:57.778Z,92668.34
2022-10-24T12:26:32.448Z,92672.13
2022-10-24T12:29:05.619Z,92672.94
2022-10-24T12:31:37.888Z,92664.94
2022-10-24T12:34:19.923Z,92664.91
2022-10-24T12:37:20.464Z,92654.09
2022-10-24T12:39:54.807Z,92642.69
2022-10-24T12:42:26.848Z,92650.06
2022-10-24T12:45:07.352Z,92646.88
2022-10-24T12:47:39.080Z,92651.47
2022-10-24T12:50:23.042Z,92638.84
2022-10-24T12:53:04.790Z,92638.84
2022-10-24T12:55:39.841Z,92630.03
2022-10-24T12:58:23.621Z,92634.41
2022-10-24T13:01:01.952Z,92628.81
2022-10-24T13:03:54.697Z,92626.41
2022-10-24T13:06:25.939Z,92618.56
2022-10-24T13:09:32.379Z,92605.16
2022-10-24T13:12:25.386Z,92603.94
2022-10-24T13:15:16.850Z,92608.94
2022-10-24T13:17:57.395Z,92599.34
2022-10-24T13:20:30.285Z,92593.53
2022-10-24T13:23:07.368Z,92591.53
2022-10-24T13:25:41.731Z,92593.91
2022-10-24T13:28:25.224Z,92592.13
2022-10-24T13:31:19.522Z,92600.91
2022-10-24T13:33:50.280Z,92591.69
2022-10-24T13:36:28.023Z,92596.72
2022-10-24T13:39:03.446Z,92587.72
2022-10-24T13:41:37.403Z,92586.34
2022-10-24T13:44:31.387Z,92587.13
2022-10-24T13:47:31.811Z,92580.16
2022-10-24T13:50:21.714Z,92573.16
2022-10-24T13:52:59.019Z,92571.34
2022-10-24T13:55:33.702Z,92574.94
2022-10-24T13:58:08.031Z,92579.56
2022-10-24T14:00:58.664Z,92563.34
2022-10-24T14:03:30.691Z,92560.94
2022-10-24T14:06:03.007Z,92559.16
2022-10-24T14:08:40.463Z,92555.13
2022-10-24T14:11:16.046Z,92553.16
2022-10-24T14:13:57.084Z,92545.34
2022-10-24T14:16:34.764Z,92547.94
2022-10-24T14:19:32.006Z,92542.94
2022-10-24T14:22:01.865Z,92535.34
2022-10-24T14:24:33.445Z,92526.53
2022-10-24T14:27:02.007Z,92516.94
2022-10-24T14:29:33.808Z,92509.13
2022-10-24T14:32:06.854Z,92506.34
2022-10-24T14:34:38.253Z,92506.53
2022-10-24T14:37:18.693Z,92499.75
2022-10-24T14:39:47.161Z,92504.34
2022-10-24T14:42:19.753Z,92491.97
2022-10-24T14:44:48.570Z,92497.16
2022-10-24T14:47:31.745Z,92498.75
2022-10-24T14:50:00.548Z,92481.56
2022-10-24T14:52:33.661Z,92481.97
2022-10-24T14:55:24.512Z,92490.00
2022-10-24T14:57:54.796Z,92493.19
2022-10-24T15:00:28.360Z,92491.59
2022-10-24T15:02:58.757Z,92498.41
2022-10-24T15:05:35.660Z,92493.22
2022-10-24T15:08:21.548Z,92490.63
2022-10-24T15:10:51.581Z,92485.22
2022-10-24T15:13:25.062Z,92489.84
2022-10-24T15:16:02.475Z,92484.63
2022-10-24T15:18:34.040Z,92483.84
2022-10-24T15:21:08.561Z,92485.22
2022-10-24T15:23:47.503Z,92482.63
2022-10-24T15:26:40.384Z,92479.63
2022-10-24T15:29:14.853Z,92477.63
2022-10-24T15:31:46.336Z,92481.03
2022-10-24T15:34:25.580Z,92475.41
2022-10-24T15:36:55.169Z,92466.38
2022-10-24T15:39:25.998Z,92462.75
2022-10-24T15:41:54.652Z,92447.50
2022-10-24T15:44:28.037Z,92445.31
2022-10-24T15:46:57.375Z,92444.69
2022-10-24T15:49:25.952Z,92445.91
2022-10-24T15:51:54.472Z,92446.69
2022-10-24T15:54:24.233Z,92440.06
2022-10-24T15:56:52.673Z,92432.66
2022-10-24T15:59:22.869Z,92433.06
2022-10-24T16:01:54.859Z,92448.28
2022-10-24T16:04:24.571Z,92447.25
2022-10-24T16:06:53.312Z,92445.44
2022-10-24T16:09:24.636Z,92443.00
2022-10-24T16:11:53.182Z,92454.03
2022-10-24T16:14:23.303Z,92445.03
2022-10-24T16:16:54.955Z,92441.00
2022-10-24T16:19:24.364Z,92443.78
2022-10-24T16:21:53.154Z,92451.16
2022-10-24T16:24:21.953Z,92449.91
2022-10-24T16:26:50.172Z,92445.09
2022-10-24T16:29:19.171Z,92437.06
2022-10-24T16:31:50.456Z,92437.84
2022-10-24T16:34:19.140Z,92442.81
2022-10-24T16:36:47.639Z,92430.38
2022-10-24T16:39:17.584Z,92433.63
2022-10-24T16:41:47.502Z,92426.63
2022-10-24T16:44:16.513Z,92422.25
2022-10-24T16:46:45.192Z,92416.84
2022-10-24T16:49:13.935Z,92417.63
2022-10-24T16:51:43.954Z,92407.13
2022-10-24T16:54:12.660Z,92401.53
2022-10-24T16:56:41.219Z,92411.84
2022-10-24T16:59:11.634Z,92417.97
2022-10-24T17:01:43.069Z,92414.47
2022-10-24T17:04:12.036Z,92413.69
2022-10-24T17:06:40.704Z,92411.00
2022-10-24T17:09:09.237Z,92411.38
2022-10-24T17:11:45.518Z,92410.34
2022-10-24T17:14:15.427Z,92402.53
2022-10-24T17:16:44.942Z,92406.00
2022-10-24T17:19:17.474Z,92402.00
2022-10-24T17:21:48.555Z,92402.53
2022-10-24T17:24:19.819Z,92396.41
2022-10-24T17:26:49.657Z,92397.00
2022-10-24T17:29:33.971Z,92405.41
2022-10-24T17:32:07.378Z,92397.56
2022-10-24T17:34:37.090Z,92399.75
2022-10-24T17:37:12.183Z,92397.84
2022-10-24T17:39:53.925Z,92398.31
2022-10-24T17:42:22.834Z,92402.38
2022-10-24T17:44:51.652Z,92390.06
2022-10-24T17:47:20.275Z,92398.25
2022-10-24T17:49:48.873Z,92405.63
2022-10-24T17:52:24.744Z,92399.53
2022-10-24T17:54:53.582Z,92404.22
2022-10-24T17:57:22.162Z,92412.72
2022-10-24T17:59:50.733Z,92407.94
2022-10-24T18:02:19.300Z,92408.03
2022-10-24T18:04:47.805Z,92396.63
2022-10-24T18:07:16.327Z,92390.75
2022-10-24T18:09:44.884Z,92390.88
2022-10-24T18:12:13.416Z,92384.50
2022-10-24T18:14:41.572Z,92383.41
2022-10-24T18:17:10.147Z,92376.16
2022-10-24T18:19:38.629Z,92369.59
2022-10-24T18:22:07.388Z,92367.56
2022-10-24T18:24:36.111Z,92366.59
2022-10-24T18:27:04.574Z,92367.47
2022-10-24T18:29:33.094Z,92370.91
2022-10-24T18:32:01.687Z,92373.00
2022-10-24T18:34:30.237Z,92375.75
2022-10-24T18:36:58.859Z,92357.88
2022-10-24T18:39:29.259Z,92357.75
2022-10-24T18:42:18.690Z,92358.97
2022-10-24T18:44:51.029Z,92355.22
2022-10-24T18:47:24.725Z,92360.97
2022-10-24T18:49:54.822Z,92363.13
2022-10-24T18:52:50.149Z,92357.63
2022-10-24T18:55:22.771Z,92351.22
2022-10-24T18:57:52.014Z,92348.88
2022-10-24T19:00:26.381Z,92349.59
2022-10-24T19:03:06.586Z,92356.09
2022-10-24T19:05:54.966Z,92356.59
2022-10-24T19:08:26.793Z,92343.09
2022-10-24T19:10:57.439Z,92346.19
2022-10-24T19:13:27.590Z,92342.44
2022-10-24T19:16:01.797Z,92351.56
2022-10-24T19:18:34.181Z,92346.09
2022-10-24T19:21:03.594Z,92335.03
2022-10-24T19:23:32.298Z,92332.00
2022-10-24T19:26:00.948Z,92332.47
2022-10-24T19:28:29.526Z,92338.06
2022-10-24T19:30:58.638Z,92334.66
2022-10-24T19:33:29.189Z,92327.25
2022-10-24T19:35:57.732Z,92323.81
2022-10-24T19:38:26.091Z,92326.44
2022-10-24T19:40:55.879Z,92318.25
2022-10-24T19:43:26.024Z,92325.88
2022-10-24T19:48:46.030Z,92320.97
2022-10-24T19:51:15.099Z,92323.25
2022-10-24T19:53:45.148Z,92316.59
2022-10-24T19:56:18.211Z,92320.34
2022-10-24T19:58:48.808Z,92321.81
2022-10-24T20:01:20.944Z,92317.59
2022-10-24T20:03:50.835Z,92322.38
2022-10-24T20:06:20.224Z,92320.75
2022-10-24T20:08:49.802Z,92305.47
2022-10-24T20:11:18.510Z,92303.53
2022-10-24T20:13:47.247Z,92296.34
2022-10-24T20:16:15.840Z,92301.03
2022-10-24T20:18:44.902Z,92299.31
2022-10-24T20:21:15.969Z,92297.84
2022-10-24T20:23:45.281Z,92301.03
2022-10-24T20:26:22.429Z,92301.56
2022-10-24T20:28:53.030Z,92299.22
2022-10-24T20:31:24.453Z,92309.50
2022-10-24T20:33:53.317Z,92305.44
2022-10-24T20:36:24.766Z,92305.06
2022-10-24T20:38:53.219Z,92308.25
2022-10-24T20:41:21.699Z,92306.59
2022-10-24T20:43:51.783Z,92310.19
2022-10-24T20:46:20.231Z,92311.19
2022-10-24T20:48:48.747Z,92311.34
2022-10-24T20:51:21.911Z,92304.69
2022-10-24T20:53:50.591Z,92314.94
2022-10-24T20:56:23.725Z,92308.91
2022-10-24T20:58:53.794Z,92314.84
2022-10-24T21:01:24.992Z,92309.78
2022-10-24T21:03:54.977Z,92307.06
2022-10-24T21:06:26.094Z,92313.34
2022-10-24T21:08:56.499Z,92304.22
2022-10-24T21:11:27.505Z,92308.19
2022-10-24T21:14:07.177Z,92303.06
2022-10-24T21:16:36.459Z,92307.28
2022-10-24T21:19:05.812Z,92310.25
2022-10-24T21:21:34.662Z,92307.31
2022-10-24T21:24:05.780Z,92307.09
2022-10-24T21:26:39.182Z,92312.00
2022-10-24T21:29:09.430Z,92311.44
2022-10-24T21:31:51.497Z,92308.03
2022-10-24T21:34:20.641Z,92314.56
2022-10-24T21:36:49.507Z,92313.19
2022-10-24T21:39:18.797Z,92317.34
2022-10-24T21:41:47.344Z,92312.38
2022-10-24T21:44:15.531Z,92313.91
2022-10-24T21:46:44.044Z,92310.81
2022-10-24T21:49:12.697Z,92312.50
2022-10-24T21:51:42.377Z,92306.91
2022-10-24T21:54:23.049Z,92306.44
2022-10-24T21:56:52.038Z,92306.84
2022-10-24T21:59:21.977Z,92307.13
2022-10-24T22:01:52.666Z,92299.72
2022-10-24T22:04:21.776Z,92302.94
2022-10-24T22:06:50.750Z,92291.31
2022-10-24T22:09:22.046Z,92299.19
2022-10-24T22:11:51.054Z,92300.34
2022-10-24T22:14:19.873Z,92296.44
2022-10-24T22:16:48.571Z,92305.44
2022-10-24T22:19:17.810Z,92298.16
2022-10-24T22:21:49.422Z,92298.56
2022-10-24T22:24:20.964Z,92298.75
2022-10-24T22:26:50.818Z,92295.44
2022-10-24T22:29:22.664Z,92298.63
2022-10-24T22:31:52.585Z,92301.03
2022-10-24T22:34:24.453Z,92304.75
2022-10-24T22:37:01.575Z,92306.44
2022-10-24T22:39:30.699Z,92305.56
2022-10-24T22:41:59.443Z,92302.72
2022-10-24T22:44:28.228Z,92307.50
2022-10-24T22:47:20.613Z,92304.50
2022-10-24T22:50:26.775Z,92306.25
2022-10-24T22:52:55.478Z,92301.47
2022-10-24T22:55:35.845Z,92301.88
2022-10-24T22:58:04.796Z,92305.63
2022-10-24T23:00:33.442Z,92305.78
2022-10-24T23:03:38.024Z,92307.91
2022-10-24T23:06:25.000Z,92312.59
2022-10-24T23:08:53.603Z,92308.63
2022-10-24T23:11:22.436Z,92307.50
2022-10-24T23:13:51.149Z,92303.53
2022-10-24T23:16:37.584Z,92305.25
2022-10-24T23:19:27.736Z,92307.22
2022-10-24T23:22:01.734Z,92302.69
2022-10-24T23:24:30.469Z,92307.78
2022-10-24T23:27:14.055Z,92305.25
2022-10-24T23:29:47.689Z,92300.09
2022-10-24T23:32:28.557Z,92301.38
2022-10-24T23:34:58.539Z,92301.94
2022-10-24T23:37:37.833Z,92296.81
2022-10-24T23:40:18.728Z,92298.22
2022-10-24T23:42:47.971Z,92289.00
2022-10-24T23:45:22.824Z,92293.91
2022-10-24T23:48:12.048Z,92291.53
2022-10-24T23:51:00.974Z,92288.44
2022-10-24T23:53:55.023Z,92294.28
2022-10-24T23:56:26.564Z,92282.81
2022-10-24T23:58:55.216Z,92279.19
